createdAt,value
2018-09-21T00:00:51.577Z,67.93
2018-09-21T00:03:22.989Z,66.92
2018-09-21T00:05:53.853Z,66.40
2018-09-21T00:08:24.873Z,66.31
2018-09-21T00:10:56.003Z,66.95
2018-09-21T00:13:26.828Z,67.97
2018-09-21T00:15:57.618Z,67.80
2018-09-21T00:18:28.745Z,66.71
2018-09-21T00:20:59.472Z,67.15
2018-09-21T00:23:30.911Z,66.35
2018-09-21T00:26:01.680Z,68.12
2018-09-21T00:28:32.697Z,67.47
2018-09-21T00:31:03.469Z,67.95
2018-09-21T00:33:35.213Z,67.14
2018-09-21T00:36:05.989Z,67.75
2018-09-21T00:38:37.042Z,69.49
2018-09-21T00:41:07.682Z,69.61
2018-09-21T00:43:39.015Z,69.86
2018-09-21T00:46:09.673Z,68.13
2018-09-21T00:48:40.637Z,68.70
2018-09-21T00:51:11.782Z,68.57
2018-09-21T00:53:42.763Z,69.23
2018-09-21T00:56:13.569Z,69.71
2018-09-21T00:58:44.746Z,68.69
2018-09-21T01:01:15.557Z,69.54
2018-09-21T01:03:46.425Z,69.34
2018-09-21T01:06:17.828Z,69.26
2018-09-21T01:08:48.924Z,69.97
2018-09-21T01:11:19.715Z,69.16
2018-09-21T01:13:50.660Z,68.97
2018-09-21T01:16:21.413Z,70.43
2018-09-21T01:18:53.048Z,69.47
2018-09-21T01:21:23.645Z,70.14
2018-09-21T01:23:54.655Z,70.74
2018-09-21T01:26:25.493Z,71.65
2018-09-21T01:29:11.651Z,71.77
2018-09-21T01:31:41.929Z,70.25
2018-09-21T01:34:12.132Z,70.52
2018-09-21T01:36:41.985Z,70.24
2018-09-21T01:39:12.669Z,71.85
2018-09-21T01:41:42.603Z,70.65
2018-09-21T01:44:12.340Z,72.42
2018-09-21T01:46:42.221Z,71.49
2018-09-21T01:49:12.546Z,72.72
2018-09-21T01:51:42.305Z,73.82
2018-09-21T01:54:12.253Z,74.08
2018-09-21T01:56:42.144Z,73.12
2018-09-21T01:59:11.986Z,72.86
2018-09-21T02:01:42.797Z,73.29
2018-09-21T02:04:12.556Z,73.42
2018-09-21T02:06:42.419Z,73.13
2018-09-21T02:09:12.238Z,73.65
2018-09-21T02:11:42.013Z,75.59
2018-09-21T02:14:12.752Z,75.12
2018-09-21T02:16:43.669Z,74.77
2018-09-21T02:19:14.824Z,75.23
2018-09-21T02:21:45.621Z,75.54
2018-09-21T02:24:16.539Z,74.87
2018-09-21T02:26:47.415Z,75.52
2018-09-21T02:29:18.843Z,75.46
2018-09-21T02:31:49.889Z,75.21
2018-09-21T02:34:20.216Z,75.22
2018-09-21T02:36:50.854Z,74.50
2018-09-21T02:39:21.734Z,74.86
2018-09-21T02:41:52.528Z,74.22
2018-09-21T02:44:23.986Z,74.53
2018-09-21T02:46:54.706Z,73.42
2018-09-21T02:49:25.600Z,74.17
2018-09-21T02:51:56.769Z,74.12
2018-09-21T02:54:27.690Z,74.91
2018-09-21T02:56:58.464Z,75.67
2018-09-21T02:59:29.881Z,75.00
2018-09-21T03:02:04.267Z,76.32
2018-09-21T03:04:34.259Z,75.88
2018-09-21T03:07:04.474Z,75.21
2018-09-21T03:09:34.342Z,76.24
2018-09-21T03:12:04.907Z,75.92
2018-09-21T03:14:35.702Z,74.48
2018-09-21T03:17:06.630Z,74.81
2018-09-21T03:19:37.824Z,74.32
2018-09-21T03:22:08.857Z,74.53
2018-09-21T03:24:39.620Z,73.81
2018-09-21T03:27:10.489Z,74.40
2018-09-21T03:29:40.941Z,75.62
2018-09-21T03:32:11.502Z,75.53
2018-09-21T03:34:41.496Z,75.40
2018-09-21T03:37:13.152Z,75.69
2018-09-21T03:39:43.615Z,75.95
2018-09-21T03:42:14.529Z,77.07
2018-09-21T03:44:45.774Z,76.06
2018-09-21T03:47:16.644Z,77.00
2018-09-21T03:49:47.477Z,76.47
2018-09-21T03:52:18.796Z,76.27
2018-09-21T03:54:49.548Z,76.34
2018-09-21T03:57:21.246Z,76.37
2018-09-21T03:59:51.719Z,76.16
2018-09-21T04:02:22.636Z,76.58
2018-09-21T04:04:53.638Z,76.63
2018-09-21T04:07:24.599Z,77.70
2018-09-21T04:09:55.501Z,77.40
2018-09-21T04:12:26.854Z,77.33
2018-09-21T04:14:57.635Z,79.03
2018-09-21T04:17:28.548Z,78.39
2018-09-21T04:19:59.453Z,78.20
2018-09-21T04:22:30.944Z,78.33
2018-09-21T04:25:02.190Z,79.54
2018-09-21T04:27:32.940Z,79.74
2018-09-21T04:30:03.837Z,78.15
2018-09-21T04:32:34.772Z,79.21
2018-09-21T04:35:05.709Z,79.11
2018-09-21T04:37:36.633Z,78.77
2018-09-21T04:40:07.552Z,78.85
2018-09-21T04:42:38.924Z,78.60
2018-09-21T04:45:09.862Z,78.85
2018-09-21T04:47:41.052Z,78.32
2018-09-21T04:50:11.692Z,78.46
2018-09-21T04:52:42.656Z,78.94
2018-09-21T04:55:13.483Z,78.92
2018-09-21T04:57:44.901Z,78.39
2018-09-21T05:00:15.853Z,78.34
2018-09-21T05:02:46.801Z,78.46
2018-09-21T05:05:17.701Z,78.57
2018-09-21T05:07:48.644Z,78.85
2018-09-21T05:10:19.489Z,78.47
2018-09-21T05:12:50.919Z,79.06
2018-09-21T05:15:21.979Z,78.53
2018-09-21T05:17:52.723Z,78.46
2018-09-21T05:20:23.674Z,77.70
2018-09-21T05:22:54.625Z,78.62
2018-09-21T05:25:25.460Z,78.79
2018-09-21T05:27:56.894Z,78.53
2018-09-21T05:30:27.788Z,77.89
2018-09-21T05:32:58.716Z,79.08
2018-09-21T05:35:29.551Z,78.20
2018-09-21T05:38:00.869Z,78.85
2018-09-21T05:40:31.697Z,78.30
2018-09-21T05:43:02.690Z,78.86
2018-09-21T05:45:33.531Z,78.13
2018-09-21T05:48:05.046Z,78.03
2018-09-21T05:50:35.726Z,78.00
2018-09-21T05:53:06.964Z,77.63
2018-09-21T05:55:38.537Z,77.62
2018-09-21T05:58:08.411Z,77.33
2018-09-21T06:00:38.649Z,78.00
2018-09-21T06:03:09.691Z,77.03
2018-09-21T06:05:40.499Z,77.49
2018-09-21T06:08:11.841Z,77.29
2018-09-21T06:10:42.630Z,76.43
2018-09-21T06:13:14.303Z,76.03
2018-09-21T06:15:44.806Z,76.29
2018-09-21T06:18:15.721Z,76.15
2018-09-21T06:20:46.773Z,75.84
2018-09-21T06:23:17.818Z,75.87
2018-09-21T06:25:48.710Z,76.46
2018-09-21T06:28:19.881Z,75.14
2018-09-21T06:30:51.200Z,74.82
2018-09-21T06:33:21.802Z,74.99
2018-09-21T06:35:52.609Z,74.49
2018-09-21T06:38:23.710Z,73.56
2018-09-21T06:40:54.525Z,73.39
2018-09-21T06:43:25.982Z,73.37
2018-09-21T06:45:55.809Z,72.66
2018-09-21T06:48:26.636Z,72.49
2018-09-21T06:50:57.513Z,72.30
2018-09-21T06:53:28.893Z,71.78
2018-09-21T06:55:59.925Z,71.72
2018-09-21T06:58:30.786Z,70.47
2018-09-21T07:01:02.390Z,68.49
2018-09-21T07:03:32.692Z,67.96
2018-09-21T07:06:03.499Z,67.65
2018-09-21T07:08:34.844Z,68.07
2018-09-21T07:11:05.625Z,67.61
2018-09-21T07:13:36.732Z,66.86
2018-09-21T07:16:07.800Z,67.05
2018-09-21T07:18:38.828Z,66.15
2018-09-21T07:21:09.766Z,65.62
2018-09-21T07:23:40.696Z,65.36
2018-09-21T07:26:11.235Z,65.84
2018-09-21T07:28:42.922Z,65.49
2018-09-21T07:31:13.817Z,65.08
2018-09-21T07:33:45.026Z,64.36
2018-09-21T07:36:15.896Z,64.31
2018-09-21T07:38:46.779Z,64.37
2018-09-21T07:41:17.634Z,64.77
2018-09-21T07:43:49.206Z,64.27
2018-09-21T07:46:19.770Z,63.33
2018-09-21T07:48:50.684Z,63.49
2018-09-21T07:51:21.625Z,63.62
2018-09-21T07:53:52.478Z,62.58
2018-09-21T07:56:23.728Z,62.52
2018-09-21T07:58:55.021Z,61.73
2018-09-21T08:01:25.808Z,61.76
2018-09-21T08:03:56.686Z,61.96
2018-09-21T08:06:27.456Z,61.12
2018-09-21T08:08:58.717Z,59.83
2018-09-21T08:11:29.537Z,59.58
2018-09-21T08:14:00.495Z,60.23
2018-09-21T08:16:31.858Z,59.75
2018-09-21T08:19:01.862Z,58.80
2018-09-21T08:21:33.102Z,59.06
2018-09-21T08:24:04.463Z,59.08
2018-09-21T08:26:35.382Z,58.54
2018-09-21T08:29:05.771Z,58.56
2018-09-21T08:31:36.246Z,57.65
2018-09-21T08:34:06.984Z,57.59
2018-09-21T08:36:37.691Z,57.00
2018-09-21T08:39:11.282Z,57.25
2018-09-21T08:41:42.066Z,56.09
2018-09-21T08:44:12.442Z,55.60
2018-09-21T08:46:42.365Z,55.23
2018-09-21T08:49:13.127Z,54.90
2018-09-21T08:51:43.624Z,54.31
2018-09-21T08:54:14.415Z,53.98
2018-09-21T08:56:45.786Z,53.58
2018-09-21T08:59:16.524Z,54.04
2018-09-21T09:01:47.895Z,53.05
2018-09-21T09:04:18.652Z,52.98
2018-09-21T09:06:49.761Z,52.75
2018-09-21T09:09:20.518Z,52.74
2018-09-21T09:11:51.588Z,52.15
2018-09-21T09:14:22.347Z,51.99
2018-09-21T09:16:53.930Z,51.77
2018-09-21T09:19:24.716Z,52.04
2018-09-21T09:21:55.839Z,52.06
2018-09-21T09:24:27.380Z,50.74
2018-09-21T09:26:57.400Z,50.44
2018-09-21T09:29:28.635Z,50.07
2018-09-21T09:31:59.326Z,50.17
2018-09-21T09:34:29.750Z,49.86
2018-09-21T09:37:00.620Z,49.96
2018-09-21T09:39:31.452Z,49.52
2018-09-21T09:42:02.812Z,49.01
2018-09-21T09:44:33.584Z,48.91
2018-09-21T09:47:04.497Z,48.49
2018-09-21T09:49:35.740Z,47.81
2018-09-21T09:52:06.606Z,47.22
2018-09-21T09:54:37.398Z,46.71
2018-09-21T09:57:08.825Z,46.27
2018-09-21T09:59:39.651Z,46.33
2018-09-21T10:02:10.882Z,45.88
2018-09-21T10:04:41.625Z,46.53
2018-09-21T10:07:12.500Z,45.53
2018-09-21T10:09:43.340Z,44.36
2018-09-21T10:12:14.802Z,44.32
2018-09-21T10:14:45.537Z,44.75
2018-09-21T10:17:16.490Z,45.07
2018-09-21T10:19:47.531Z,43.04
2018-09-21T10:22:18.629Z,43.83
2018-09-21T10:24:49.422Z,42.82
2018-09-21T10:27:21.026Z,41.84
2018-09-21T10:29:52.206Z,41.65
2018-09-21T10:32:22.861Z,41.48
2018-09-21T10:34:54.312Z,41.53
2018-09-21T10:37:25.054Z,40.41
2018-09-21T10:39:55.670Z,40.04
2018-09-21T10:42:26.651Z,40.36
2018-09-21T10:44:57.240Z,39.39
2018-09-21T10:47:28.880Z,39.14
2018-09-21T10:49:59.858Z,39.46
2018-09-21T10:52:30.872Z,38.01
2018-09-21T10:55:01.725Z,36.64
2018-09-21T10:57:32.745Z,34.59
2018-09-21T11:00:03.741Z,34.86
2018-09-21T11:02:34.735Z,34.22
2018-09-21T11:05:05.913Z,34.00
2018-09-21T11:07:37.195Z,34.24
2018-09-21T11:10:08.210Z,33.71
2018-09-21T11:12:39.203Z,32.44
2018-09-21T11:15:09.825Z,32.72
2018-09-21T11:17:40.726Z,31.64
2018-09-21T11:20:11.959Z,30.54
2018-09-21T11:22:42.990Z,31.67
2018-09-21T11:25:13.714Z,30.39
2018-09-21T11:27:44.692Z,30.23
2018-09-21T11:30:15.478Z,30.01
2018-09-21T11:32:46.905Z,28.95
2018-09-21T11:35:17.695Z,30.07
2018-09-21T11:37:48.590Z,29.25
2018-09-21T11:40:19.390Z,29.57
2018-09-21T11:42:50.913Z,28.63
2018-09-21T11:45:21.706Z,28.80
2018-09-21T11:47:52.603Z,28.12
2018-09-21T11:50:23.446Z,28.12
2018-09-21T11:52:54.513Z,27.93
2018-09-21T11:55:26.858Z,28.40
2018-09-21T11:57:56.718Z,29.10
2018-09-21T12:00:27.895Z,28.22
2018-09-21T12:02:59.117Z,29.16
2018-09-21T12:05:29.874Z,29.77
2018-09-21T12:08:00.884Z,29.93
2018-09-21T12:10:31.711Z,29.95
2018-09-21T12:13:02.850Z,30.67
2018-09-21T12:15:33.629Z,30.12
2018-09-21T12:18:04.609Z,30.76
2018-09-21T12:20:38.788Z,31.51
2018-09-21T12:23:08.879Z,31.15
2018-09-21T12:25:38.845Z,31.18
2018-09-21T12:28:08.681Z,32.03
2018-09-21T12:30:39.534Z,31.20
2018-09-21T12:33:10.435Z,32.52
2018-09-21T12:35:41.863Z,32.04
2018-09-21T12:38:12.791Z,32.02
2018-09-21T12:40:44.945Z,32.07
2018-09-21T12:43:14.718Z,32.32
2018-09-21T12:45:45.581Z,32.60
2018-09-21T12:48:16.510Z,32.50
2018-09-21T12:50:47.606Z,33.08
2018-09-21T12:53:18.533Z,33.38
2018-09-21T12:55:49.591Z,33.23
2018-09-21T12:58:20.444Z,34.19
2018-09-21T13:00:52.364Z,34.36
2018-09-21T13:03:24.043Z,35.23
2018-09-21T13:05:57.836Z,34.80
2018-09-21T13:08:28.070Z,35.55
2018-09-21T13:10:58.257Z,35.54
2018-09-21T13:13:28.226Z,36.54
2018-09-21T13:15:58.005Z,36.16
2018-09-21T13:18:28.706Z,36.11
2018-09-21T13:20:59.457Z,36.13
2018-09-21T13:23:32.975Z,35.72
2018-09-21T13:26:02.758Z,35.88
2018-09-21T13:28:33.028Z,36.03
2018-09-21T13:31:03.251Z,37.13
2018-09-21T13:33:33.895Z,36.84
2018-09-21T13:36:04.762Z,36.54
2018-09-21T13:38:35.550Z,36.88
2018-09-21T13:41:06.583Z,36.00
2018-09-21T13:43:37.418Z,36.19
2018-09-21T13:46:08.870Z,36.96
2018-09-21T13:48:39.664Z,36.52
2018-09-21T13:51:10.654Z,36.87
2018-09-21T13:53:41.509Z,36.39
2018-09-21T13:56:12.618Z,36.98
2018-09-21T13:58:43.466Z,36.86
2018-09-21T14:01:14.607Z,35.85
2018-09-21T14:03:45.534Z,36.48
2018-09-21T14:06:16.527Z,37.00
2018-09-21T14:08:47.434Z,36.84
2018-09-21T14:11:18.514Z,36.92
2018-09-21T14:13:49.457Z,37.31
2018-09-21T14:16:20.822Z,38.02
2018-09-21T14:18:51.582Z,37.93
2018-09-21T14:21:22.613Z,37.64
2018-09-21T14:23:53.636Z,37.27
2018-09-21T14:26:24.542Z,37.93
2018-09-21T14:28:55.571Z,38.28
2018-09-21T14:31:26.245Z,38.03
2018-09-21T14:33:56.737Z,37.98
2018-09-21T14:36:27.726Z,39.10
2018-09-21T14:38:58.453Z,39.51
2018-09-21T14:41:29.989Z,38.84
2018-09-21T14:44:00.637Z,38.92
2018-09-21T14:46:31.508Z,38.99
2018-09-21T14:49:02.499Z,38.80
2018-09-21T14:51:33.549Z,39.00
2018-09-21T14:54:04.541Z,38.88
2018-09-21T14:56:35.540Z,39.35
2018-09-21T14:59:06.893Z,39.17
2018-09-21T15:01:38.809Z,39.82
2018-09-21T15:04:10.546Z,39.78
2018-09-21T15:06:40.565Z,39.96
2018-09-21T15:09:11.389Z,39.99
2018-09-21T15:11:42.750Z,40.37
2018-09-21T15:14:12.731Z,39.73
2018-09-21T15:16:43.810Z,39.72
2018-09-21T15:19:14.676Z,37.99
2018-09-21T15:21:45.602Z,37.91
2018-09-21T15:24:16.662Z,37.05
2018-09-21T15:26:47.754Z,36.25
2018-09-21T15:29:19.049Z,36.63
2018-09-21T15:31:49.143Z,36.76
2018-09-21T15:34:19.803Z,37.74
2018-09-21T15:36:50.956Z,38.15
2018-09-21T15:39:21.718Z,38.17
2018-09-21T15:41:52.727Z,38.49
2018-09-21T15:44:23.549Z,38.12
2018-09-21T15:46:54.909Z,38.77
2018-09-21T15:49:25.865Z,38.17
2018-09-21T15:51:56.838Z,38.30
2018-09-21T15:54:27.656Z,38.92
2018-09-21T15:56:59.851Z,38.26
2018-09-21T15:59:30.317Z,39.08
2018-09-21T16:02:00.893Z,38.96
2018-09-21T16:04:31.863Z,39.69
2018-09-21T16:07:02.699Z,39.62
2018-09-21T16:09:33.720Z,40.67
2018-09-21T16:12:04.635Z,40.03
2018-09-21T16:14:36.077Z,41.02
2018-09-21T16:17:06.781Z,40.72
2018-09-21T16:19:37.558Z,41.42
2018-09-21T16:22:08.626Z,41.25
2018-09-21T16:24:39.515Z,41.94
2018-09-21T16:27:11.004Z,41.75
2018-09-21T16:29:41.679Z,42.11
2018-09-21T16:32:13.057Z,42.64
2018-09-21T16:34:43.780Z,43.25
2018-09-21T16:37:14.625Z,43.19
2018-09-21T16:39:46.253Z,43.90
2018-09-21T16:42:16.677Z,43.83
2018-09-21T16:44:46.498Z,44.01
2018-09-21T16:47:17.698Z,44.36
2018-09-21T16:49:48.705Z,44.36
2018-09-21T16:52:19.641Z,44.99
2018-09-21T16:54:50.413Z,44.70
2018-09-21T16:57:21.915Z,45.15
2018-09-21T16:59:52.640Z,45.30
2018-09-21T17:02:23.610Z,46.47
2018-09-21T17:04:54.687Z,45.71
2018-09-21T17:07:26.123Z,45.75
2018-09-21T17:09:56.640Z,45.73
2018-09-21T17:12:27.530Z,46.52
2018-09-21T17:14:58.835Z,46.73
2018-09-21T17:17:30.525Z,46.25
2018-09-21T17:20:00.491Z,46.20
2018-09-21T17:22:31.494Z,47.13
2018-09-21T17:25:02.849Z,46.96
2018-09-21T17:27:33.696Z,47.06
2018-09-21T17:30:04.873Z,47.45
2018-09-21T17:32:35.620Z,47.37
2018-09-21T17:35:06.453Z,47.68
2018-09-21T17:37:37.594Z,47.50
2018-09-21T17:40:08.489Z,48.04
2018-09-21T17:42:39.817Z,47.34
2018-09-21T17:45:10.629Z,48.03
2018-09-21T17:47:41.744Z,48.06
2018-09-21T17:50:12.594Z,48.07
2018-09-21T17:52:43.603Z,47.67
2018-09-21T17:55:14.774Z,48.27
2018-09-21T17:57:45.807Z,47.68
2018-09-21T18:00:21.843Z,48.05
2018-09-21T18:02:51.672Z,48.06
2018-09-21T18:05:21.477Z,48.27
2018-09-21T18:07:51.436Z,48.77
2018-09-21T18:10:21.348Z,49.03
2018-09-21T18:12:51.757Z,49.26
2018-09-21T18:15:22.670Z,49.53
2018-09-21T18:17:53.450Z,49.58
2018-09-21T18:20:24.947Z,49.94
2018-09-21T18:22:56.061Z,50.18
2018-09-21T18:25:27.706Z,50.15
2018-09-21T18:27:57.644Z,49.71
2018-09-21T18:30:28.670Z,50.11
2018-09-21T18:32:59.727Z,49.93
2018-09-21T18:35:30.958Z,50.54
2018-09-21T18:38:01.844Z,50.56
2018-09-21T18:40:33.285Z,50.21
2018-09-21T18:43:04.709Z,50.73
2018-09-21T18:45:34.889Z,50.35
2018-09-21T18:48:05.809Z,50.98
2018-09-21T18:50:36.905Z,50.92
2018-09-21T18:53:07.858Z,50.53
2018-09-21T18:55:39.059Z,51.64
2018-09-21T18:58:09.993Z,51.21
2018-09-21T19:00:40.328Z,51.36
2018-09-21T19:03:11.174Z,51.37
2018-09-21T19:05:42.208Z,51.78
2018-09-21T19:08:14.993Z,51.67
2018-09-21T19:10:45.583Z,51.51
2018-09-21T19:13:15.584Z,51.97
2018-09-21T19:15:45.510Z,51.35
2018-09-21T19:18:16.563Z,51.89
2018-09-21T19:20:48.530Z,52.33
2018-09-21T19:23:18.924Z,52.80
2018-09-21T19:25:50.030Z,52.16
2018-09-21T19:28:21.227Z,51.68
2018-09-21T19:30:52.224Z,52.44
2018-09-21T19:33:22.984Z,52.58
2018-09-21T19:35:54.567Z,52.01
2018-09-21T19:38:24.728Z,52.90
2018-09-21T19:40:54.810Z,52.83
2018-09-21T19:43:26.001Z,53.16
2018-09-21T19:45:58.096Z,52.97
2018-09-21T19:48:28.480Z,54.83
2018-09-21T19:50:59.090Z,53.44
2018-09-21T19:53:30.139Z,50.75
2018-09-21T19:56:00.930Z,50.10
2018-09-21T19:58:32.109Z,50.30
2018-09-21T20:01:02.832Z,51.01
2018-09-21T20:03:38.771Z,53.21
2018-09-21T20:06:10.075Z,53.92
2018-09-21T20:08:40.869Z,54.62
2018-09-21T20:11:10.994Z,60.68
